createdAt,value
2023-03-16T00:02:21.848Z,15.89
2023-03-16T00:04:51.162Z,15.88
2023-03-16T00:07:24.351Z,15.87
2023-03-16T00:09:53.615Z,15.86
2023-03-16T00:12:22.849Z,15.87
2023-03-16T00:14:51.144Z,15.82
2023-03-16T00:17:20.691Z,15.86
2023-03-16T00:19:50.029Z,15.85
2023-03-16T00:22:19.240Z,15.83
2023-03-16T00:24:48.446Z,15.81
2023-03-16T00:27:17.751Z,15.81
2023-03-16T00:29:46.538Z,15.80
2023-03-16T00:32:15.336Z,15.81
2023-03-16T00:34:44.621Z,15.80
2023-03-16T00:37:14.924Z,15.79
2023-03-16T00:39:45.202Z,15.79
2023-03-16T00:42:14.549Z,15.79
2023-03-16T00:44:43.408Z,15.74
2023-03-16T00:47:13.486Z,15.78
2023-03-16T00:49:41.963Z,15.77
2023-03-16T00:52:10.953Z,15.77
2023-03-16T00:54:40.675Z,15.77
2023-03-16T00:57:09.658Z,15.75
2023-03-16T00:59:38.528Z,15.73
2023-03-16T01:02:07.650Z,15.73
2023-03-16T01:04:36.462Z,15.72
2023-03-16T01:07:05.757Z,15.72
2023-03-16T01:09:35.108Z,15.72
2023-03-16T01:12:04.406Z,15.72
2023-03-16T01:14:33.259Z,15.73
2023-03-16T01:17:02.233Z,15.72
2023-03-16T01:19:30.396Z,15.72
2023-03-16T01:21:59.137Z,15.71
2023-03-16T01:24:27.997Z,15.71
2023-03-16T01:26:57.320Z,15.71
2023-03-16T01:29:30.382Z,15.70
2023-03-16T01:32:00.594Z,15.69
2023-03-16T01:34:29.673Z,15.68
2023-03-16T01:36:58.121Z,15.70
2023-03-16T01:39:47.152Z,15.69
2023-03-16T01:42:16.326Z,15.67
2023-03-16T01:44:45.613Z,15.66
2023-03-16T01:47:13.968Z,15.65
2023-03-16T01:49:42.406Z,15.65
2023-03-16T01:52:11.591Z,15.65
2023-03-16T01:54:41.257Z,15.64
2023-03-16T01:57:10.412Z,15.64
2023-03-16T01:59:40.868Z,15.62
2023-03-16T02:02:09.668Z,15.62
2023-03-16T02:04:38.236Z,15.61
2023-03-16T02:07:07.582Z,15.60
2023-03-16T02:09:36.648Z,15.59
2023-03-16T02:12:05.892Z,15.59
2023-03-16T02:14:39.392Z,15.58
2023-03-16T02:17:08.165Z,15.57
2023-03-16T02:19:37.028Z,15.57
2023-03-16T02:22:06.180Z,15.53
2023-03-16T02:24:35.410Z,15.56
2023-03-16T02:27:04.738Z,15.57
2023-03-16T02:29:37.219Z,15.56
2023-03-16T02:32:06.213Z,15.56
2023-03-16T02:34:34.548Z,15.56
2023-03-16T02:37:04.560Z,15.54
2023-03-16T02:39:33.745Z,15.54
2023-03-16T02:42:03.273Z,15.53
2023-03-16T02:44:32.178Z,15.53
2023-03-16T02:47:00.961Z,15.55
2023-03-16T02:49:30.927Z,15.55
2023-03-16T02:51:59.521Z,15.54
2023-03-16T02:54:27.874Z,15.54
2023-03-16T02:56:56.640Z,15.55
2023-03-16T02:59:26.947Z,15.53
2023-03-16T03:01:55.750Z,15.52
2023-03-16T03:04:24.451Z,15.50
2023-03-16T03:06:53.676Z,15.50
2023-03-16T03:09:22.560Z,15.49
2023-03-16T03:11:54.234Z,15.47
2023-03-16T03:14:23.367Z,15.47
2023-03-16T03:16:52.645Z,15.46
2023-03-16T03:19:20.997Z,15.45
2023-03-16T03:21:49.828Z,15.45
2023-03-16T03:24:19.534Z,15.44
2023-03-16T03:26:49.302Z,15.43
2023-03-16T03:29:20.771Z,15.42
2023-03-16T03:31:49.739Z,15.41
2023-03-16T03:34:19.017Z,15.41
2023-03-16T03:36:47.912Z,15.40
2023-03-16T03:39:16.876Z,15.39
2023-03-16T03:41:46.324Z,15.35
2023-03-16T03:44:15.260Z,15.36
2023-03-16T03:46:44.322Z,15.37
2023-03-16T03:49:13.233Z,15.36
2023-03-16T03:51:42.062Z,15.35
2023-03-16T03:54:15.471Z,15.35
2023-03-16T03:57:02.912Z,15.34
2023-03-16T03:59:31.402Z,15.32
2023-03-16T04:02:24.997Z,15.32
2023-03-16T04:05:01.393Z,15.30
2023-03-16T04:07:31.217Z,15.30
2023-03-16T04:10:04.783Z,15.29
2023-03-16T04:12:38.434Z,15.28
2023-03-16T04:15:10.998Z,15.27
2023-03-16T04:17:49.042Z,15.27
2023-03-16T04:20:17.914Z,15.26
2023-03-16T04:22:47.820Z,15.24
2023-03-16T04:25:17.544Z,15.24
2023-03-16T04:27:47.398Z,15.23
2023-03-16T04:30:17.519Z,15.22
2023-03-16T04:32:50.961Z,15.21
2023-03-16T04:35:21.739Z,15.21
2023-03-16T04:37:54.892Z,15.22
2023-03-16T04:40:30.934Z,15.19
2023-03-16T04:43:08.965Z,15.19
2023-03-16T04:45:37.964Z,15.18
2023-03-16T04:48:06.137Z,15.09
2023-03-16T04:50:35.330Z,15.16
2023-03-16T04:53:04.537Z,15.15
2023-03-16T04:55:34.787Z,15.16
2023-03-16T04:58:05.521Z,15.14
2023-03-16T05:00:38.686Z,15.14
2023-03-16T05:03:12.791Z,15.13
2023-03-16T05:05:42.099Z,15.13
2023-03-16T05:08:13.008Z,15.13
2023-03-16T05:10:45.632Z,15.12
2023-03-16T05:13:14.451Z,15.11
2023-03-16T05:15:44.437Z,15.11
2023-03-16T05:18:19.310Z,15.10
2023-03-16T05:20:47.725Z,15.09
2023-03-16T05:23:16.778Z,15.08
2023-03-16T05:25:48.797Z,15.09
2023-03-16T05:28:20.178Z,15.07
2023-03-16T05:30:55.338Z,15.07
2023-03-16T05:33:27.453Z,15.07
2023-03-16T05:36:03.019Z,15.05
2023-03-16T05:38:32.695Z,15.06
2023-03-16T05:41:03.368Z,15.04
2023-03-16T05:43:57.030Z,15.03
2023-03-16T05:46:29.839Z,15.03
2023-03-16T05:48:58.926Z,15.02
2023-03-16T05:51:28.070Z,15.02
2023-03-16T05:53:57.274Z,15.01
2023-03-16T05:56:34.077Z,15.01
2023-03-16T05:59:02.754Z,15.00
2023-03-16T06:01:31.264Z,15.00
2023-03-16T06:04:00.094Z,14.99
2023-03-16T06:06:30.312Z,14.99
2023-03-16T06:09:08.265Z,14.99
2023-03-16T06:11:37.342Z,15.00
2023-03-16T06:14:06.231Z,14.99
2023-03-16T06:16:35.173Z,14.99
2023-03-16T06:19:04.034Z,15.00
2023-03-16T06:21:34.452Z,15.01
2023-03-16T06:24:11.218Z,15.01
2023-03-16T06:26:40.176Z,15.00
2023-03-16T06:29:12.282Z,15.00
2023-03-16T06:31:42.265Z,15.02
2023-03-16T06:34:12.262Z,15.00
2023-03-16T06:36:41.593Z,14.97
2023-03-16T06:39:13.282Z,15.00
2023-03-16T06:41:44.221Z,15.00
2023-03-16T06:44:15.726Z,15.00
2023-03-16T06:47:07.512Z,15.01
2023-03-16T06:49:36.392Z,15.01
2023-03-16T06:52:12.986Z,15.02
2023-03-16T06:54:41.999Z,15.01
2023-03-16T06:57:11.141Z,15.01
2023-03-16T06:59:39.981Z,15.03
2023-03-16T07:02:09.129Z,15.02
2023-03-16T07:04:37.757Z,15.02
2023-03-16T07:07:05.993Z,15.03
2023-03-16T07:09:37.883Z,15.04
2023-03-16T07:12:08.954Z,15.06
2023-03-16T07:14:39.096Z,15.07
2023-03-16T07:17:11.113Z,15.07
2023-03-16T07:19:40.943Z,15.07
2023-03-16T07:22:10.678Z,15.02
2023-03-16T07:24:41.420Z,15.05
2023-03-16T07:27:12.373Z,15.04
2023-03-16T07:29:42.071Z,15.02
2023-03-16T07:32:11.038Z,15.00
2023-03-16T07:34:40.620Z,14.99
2023-03-16T07:37:09.562Z,15.00
2023-03-16T07:39:38.161Z,14.98
2023-03-16T07:42:11.108Z,15.00
2023-03-16T07:44:57.319Z,15.00
2023-03-16T07:47:26.697Z,15.01
2023-03-16T07:49:59.861Z,15.00
2023-03-16T07:52:44.464Z,15.00
2023-03-16T07:55:13.646Z,15.00
2023-03-16T07:57:45.521Z,15.01
2023-03-16T08:00:14.110Z,15.00
2023-03-16T08:02:45.743Z,15.00
2023-03-16T08:05:23.373Z,15.00
2023-03-16T08:07:59.333Z,15.00
2023-03-16T08:10:29.360Z,15.00
2023-03-16T08:13:07.660Z,15.01
2023-03-16T08:15:37.087Z,15.00
2023-03-16T08:18:26.398Z,15.01
2023-03-16T08:20:55.600Z,15.01
2023-03-16T08:23:24.328Z,15.05
2023-03-16T08:25:53.774Z,15.08
2023-03-16T08:28:23.586Z,15.11
2023-03-16T08:31:01.808Z,15.15
2023-03-16T08:33:37.719Z,15.18
2023-03-16T08:36:07.862Z,15.22
2023-03-16T08:38:37.388Z,15.26
2023-03-16T08:41:08.714Z,15.29
2023-03-16T08:43:37.624Z,15.32
2023-03-16T08:46:07.004Z,15.34
2023-03-16T08:48:50.121Z,15.36
2023-03-16T08:51:19.010Z,15.38
2023-03-16T08:53:48.258Z,15.38
2023-03-16T08:56:17.456Z,15.39
2023-03-16T08:58:46.429Z,15.40
2023-03-16T09:01:14.987Z,15.39
2023-03-16T09:03:44.462Z,15.40
2023-03-16T09:06:14.576Z,15.41
2023-03-16T09:08:44.309Z,15.42
2023-03-16T09:11:13.657Z,15.42
2023-03-16T09:13:42.892Z,15.43
2023-03-16T09:16:11.989Z,15.47
2023-03-16T09:18:40.200Z,15.49
2023-03-16T09:21:09.530Z,15.50
2023-03-16T09:23:38.528Z,15.51
2023-03-16T09:26:07.078Z,15.51
2023-03-16T09:28:44.287Z,15.49
2023-03-16T09:31:13.666Z,15.49
2023-03-16T09:33:42.941Z,15.47
2023-03-16T09:36:11.801Z,15.45
2023-03-16T09:38:41.070Z,15.43
2023-03-16T09:41:09.904Z,15.42
2023-03-16T09:43:39.169Z,15.41
2023-03-16T09:46:08.002Z,15.41
2023-03-16T09:48:41.238Z,15.41
2023-03-16T09:51:10.322Z,15.41
2023-03-16T09:53:38.611Z,15.41
2023-03-16T09:56:07.779Z,15.41
2023-03-16T09:58:36.662Z,15.41
2023-03-16T10:01:04.488Z,15.43
2023-03-16T10:03:32.726Z,15.45
2023-03-16T10:06:05.617Z,15.48
2023-03-16T10:08:34.805Z,15.52
2023-03-16T10:11:04.018Z,15.54
2023-03-16T10:13:33.260Z,15.58
2023-03-16T10:16:02.276Z,15.63
2023-03-16T10:18:30.475Z,15.76
2023-03-16T10:20:59.730Z,16.01
2023-03-16T10:23:28.995Z,16.36
2023-03-16T10:25:58.287Z,16.74
2023-03-16T10:28:27.446Z,17.16
2023-03-16T10:30:55.708Z,17.51
2023-03-16T10:33:28.638Z,17.78
2023-03-16T10:35:57.994Z,18.00
2023-03-16T10:38:27.247Z,18.24
2023-03-16T10:40:56.068Z,18.47
2023-03-16T10:43:25.258Z,18.65
2023-03-16T10:45:54.446Z,18.82
2023-03-16T10:48:23.389Z,18.97
2023-03-16T10:50:51.952Z,19.17
2023-03-16T10:53:21.213Z,19.40
2023-03-16T10:55:50.064Z,19.66
2023-03-16T10:58:19.243Z,19.86
2023-03-16T11:00:48.535Z,19.96
2023-03-16T11:03:18.603Z,19.97
2023-03-16T11:05:47.180Z,19.91
2023-03-16T11:08:15.413Z,19.88
2023-03-16T11:10:55.094Z,19.88
2023-03-16T11:13:25.657Z,19.88
2023-03-16T11:15:58.609Z,19.92
2023-03-16T11:18:28.131Z,19.87
2023-03-16T11:20:57.573Z,19.88
2023-03-16T11:23:26.848Z,19.81
2023-03-16T11:25:56.201Z,19.69
2023-03-16T11:28:25.072Z,19.56
2023-03-16T11:30:54.287Z,19.43
2023-03-16T11:33:23.540Z,19.33
2023-03-16T11:35:58.659Z,19.24
2023-03-16T11:38:28.263Z,19.16
2023-03-16T11:40:56.906Z,19.07
2023-03-16T11:43:26.161Z,19.00
2023-03-16T11:45:54.473Z,18.93
2023-03-16T11:48:23.776Z,18.87
2023-03-16T11:50:52.882Z,18.80
2023-03-16T11:53:21.458Z,18.71
2023-03-16T11:55:50.751Z,18.71
2023-03-16T11:58:20.019Z,18.68
2023-03-16T12:00:48.991Z,18.66
2023-03-16T12:03:21.324Z,18.64
2023-03-16T12:05:50.649Z,18.63
2023-03-16T12:08:20.012Z,18.64
2023-03-16T12:10:52.506Z,18.64
2023-03-16T12:13:21.770Z,18.64
2023-03-16T12:15:50.515Z,18.64
2023-03-16T12:18:19.731Z,18.65
2023-03-16T12:20:49.068Z,18.67
2023-03-16T12:23:18.269Z,18.70
2023-03-16T12:25:47.456Z,18.76
2023-03-16T12:28:16.762Z,18.83
2023-03-16T12:30:45.950Z,18.90
2023-03-16T12:33:15.244Z,19.03
2023-03-16T12:35:44.531Z,19.18
2023-03-16T12:38:13.355Z,19.35
2023-03-16T12:40:42.770Z,19.50
2023-03-16T12:43:12.574Z,19.67
2023-03-16T12:45:41.837Z,19.85
2023-03-16T12:48:10.713Z,19.99
2023-03-16T12:50:39.970Z,20.11
2023-03-16T12:53:09.356Z,20.26
2023-03-16T12:55:38.663Z,20.42
2023-03-16T12:58:07.978Z,20.58
2023-03-16T13:00:37.200Z,20.65
2023-03-16T13:03:06.100Z,20.87
2023-03-16T13:05:39.326Z,21.22
2023-03-16T13:08:08.582Z,21.51
2023-03-16T13:10:37.356Z,21.85
2023-03-16T13:13:06.633Z,22.21
2023-03-16T13:15:35.606Z,22.56
2023-03-16T13:18:04.066Z,22.89
2023-03-16T13:20:33.845Z,23.30
2023-03-16T13:23:03.382Z,23.59
2023-03-16T13:25:32.657Z,23.86
2023-03-16T13:28:01.417Z,24.20
2023-03-16T13:30:31.221Z,24.51
2023-03-16T13:33:00.882Z,24.89
2023-03-16T13:35:30.305Z,25.30
2023-03-16T13:37:59.663Z,25.67
2023-03-16T13:40:29.146Z,25.90
2023-03-16T13:42:58.479Z,26.23
2023-03-16T13:45:27.714Z,26.41
2023-03-16T13:47:57.009Z,26.72
2023-03-16T13:50:25.824Z,27.02
2023-03-16T13:52:55.016Z,26.90
2023-03-16T13:55:24.400Z,26.85
2023-03-16T13:57:53.715Z,27.32
2023-03-16T14:00:22.771Z,27.65
2023-03-16T14:02:51.437Z,27.81
2023-03-16T14:05:20.251Z,28.01
2023-03-16T14:07:49.036Z,28.05
2023-03-16T14:10:18.265Z,27.90
2023-03-16T14:12:47.562Z,27.95
2023-03-16T14:15:16.775Z,27.98
2023-03-16T14:17:46.004Z,27.83
2023-03-16T14:20:15.287Z,27.78
2023-03-16T14:22:44.458Z,27.59
2023-03-16T14:25:14.576Z,27.50
2023-03-16T14:27:44.863Z,27.97
2023-03-16T14:30:14.201Z,28.08
2023-03-16T14:32:43.461Z,28.07
2023-03-16T14:35:12.271Z,28.15
2023-03-16T14:37:41.203Z,28.28
2023-03-16T14:40:09.414Z,28.32
2023-03-16T14:42:38.765Z,28.23
2023-03-16T14:45:08.104Z,28.19
2023-03-16T14:47:37.353Z,28.17
2023-03-16T14:50:06.687Z,28.24
2023-03-16T14:52:36.085Z,28.16
2023-03-16T14:55:04.967Z,27.89
2023-03-16T14:57:34.239Z,27.13
2023-03-16T15:00:03.187Z,26.07
2023-03-16T15:02:32.050Z,25.04
2023-03-16T15:05:01.315Z,24.19
2023-03-16T15:07:29.646Z,23.48
2023-03-16T15:09:59.089Z,22.87
2023-03-16T15:12:28.598Z,22.35
2023-03-16T15:14:57.936Z,21.97
2023-03-16T15:17:27.151Z,21.65
2023-03-16T15:19:56.364Z,21.39
2023-03-16T15:22:25.607Z,21.17
2023-03-16T15:24:54.791Z,20.98
2023-03-16T15:27:23.673Z,20.77
2023-03-16T15:29:51.915Z,20.56
2023-03-16T15:32:20.065Z,20.34
2023-03-16T15:34:49.151Z,20.20
2023-03-16T15:37:17.984Z,20.09
2023-03-16T15:39:47.240Z,19.99
2023-03-16T15:42:16.544Z,19.92
2023-03-16T15:44:45.870Z,19.78
2023-03-16T15:47:15.079Z,19.65
2023-03-16T15:49:48.238Z,19.53
2023-03-16T15:52:17.164Z,19.43
2023-03-16T15:54:46.483Z,19.34
2023-03-16T15:57:15.283Z,19.25
2023-03-16T15:59:44.705Z,19.16
2023-03-16T16:02:14.027Z,19.08
2023-03-16T16:04:43.320Z,19.02
2023-03-16T16:07:13.406Z,18.93
2023-03-16T16:09:43.562Z,18.87
2023-03-16T16:12:12.366Z,18.81
2023-03-16T16:14:41.166Z,18.77
2023-03-16T16:17:09.962Z,18.70
2023-03-16T16:19:39.141Z,18.65
2023-03-16T16:22:08.169Z,18.61
2023-03-16T16:24:36.459Z,18.58
2023-03-16T16:27:05.804Z,18.54
2023-03-16T16:29:35.089Z,18.50
2023-03-16T16:32:04.374Z,18.45
2023-03-16T16:34:33.823Z,18.43
2023-03-16T16:37:03.275Z,18.36
2023-03-16T16:39:32.685Z,18.32
2023-03-16T16:42:02.007Z,18.30
2023-03-16T16:44:33.996Z,18.24
2023-03-16T16:47:03.630Z,18.23
2023-03-16T16:49:32.262Z,18.18
2023-03-16T16:52:01.421Z,18.14
2023-03-16T16:54:30.175Z,18.11
2023-03-16T16:57:00.403Z,18.07
2023-03-16T16:59:30.316Z,18.04
2023-03-16T17:01:59.077Z,18.00
2023-03-16T17:04:28.477Z,17.96
2023-03-16T17:06:57.601Z,17.94
2023-03-16T17:09:26.099Z,17.90
2023-03-16T17:11:55.350Z,17.85
2023-03-16T17:14:24.679Z,17.83
2023-03-16T17:16:54.065Z,17.79
2023-03-16T17:19:23.466Z,17.73
2023-03-16T17:21:52.712Z,17.71
2023-03-16T17:24:21.647Z,17.67
2023-03-16T17:26:50.184Z,17.63
2023-03-16T17:29:18.956Z,17.60
2023-03-16T17:31:48.236Z,17.55
2023-03-16T17:34:16.903Z,17.53
2023-03-16T17:36:46.060Z,17.50
2023-03-16T17:39:15.266Z,17.47
2023-03-16T17:41:44.525Z,17.44
2023-03-16T17:44:13.745Z,17.42
2023-03-16T17:46:42.676Z,17.39
2023-03-16T17:49:11.981Z,17.36
2023-03-16T17:51:41.229Z,17.34
2023-03-16T17:54:10.543Z,17.31
2023-03-16T17:56:39.379Z,17.30
2023-03-16T17:59:08.727Z,17.25
2023-03-16T18:01:37.742Z,17.26
2023-03-16T18:04:06.501Z,17.25
2023-03-16T18:06:35.893Z,17.22
2023-03-16T18:09:05.194Z,17.19
2023-03-16T18:11:33.625Z,17.16
2023-03-16T18:14:02.887Z,17.15
2023-03-16T18:16:32.232Z,17.11
2023-03-16T18:19:01.093Z,17.10
2023-03-16T18:21:34.335Z,17.08
2023-03-16T18:24:03.601Z,17.01
2023-03-16T18:26:32.866Z,17.03
2023-03-16T18:29:01.861Z,17.00
2023-03-16T18:31:30.573Z,16.98
2023-03-16T18:33:59.689Z,16.97
2023-03-16T18:36:28.395Z,16.94
2023-03-16T18:38:57.352Z,16.94
2023-03-16T18:41:26.361Z,16.91
2023-03-16T18:43:55.632Z,16.89
2023-03-16T18:46:24.888Z,16.89
2023-03-16T18:48:53.671Z,16.88
2023-03-16T18:51:22.360Z,16.86
2023-03-16T18:53:51.676Z,16.84
2023-03-16T18:56:25.137Z,16.83
2023-03-16T18:58:54.400Z,16.79
2023-03-16T19:01:22.796Z,16.79
2023-03-16T19:03:52.309Z,16.78
2023-03-16T19:06:20.810Z,16.76
2023-03-16T19:08:49.399Z,16.74
2023-03-16T19:11:21.810Z,16.74
2023-03-16T19:13:52.602Z,16.72
2023-03-16T19:16:23.767Z,16.71
2023-03-16T19:18:52.629Z,16.69
2023-03-16T19:21:21.955Z,16.69
2023-03-16T19:23:52.176Z,16.66
2023-03-16T19:26:21.527Z,16.65
2023-03-16T19:28:50.572Z,16.63
2023-03-16T19:31:18.758Z,16.63
2023-03-16T19:33:48.090Z,16.60
2023-03-16T19:36:17.169Z,16.60
2023-03-16T19:38:46.049Z,16.59
2023-03-16T19:41:15.092Z,16.57
2023-03-16T19:43:43.207Z,16.58
2023-03-16T19:46:11.972Z,16.56
2023-03-16T19:48:41.303Z,16.54
2023-03-16T19:51:10.661Z,16.54
2023-03-16T19:53:39.459Z,16.52
2023-03-16T19:56:08.645Z,16.51
2023-03-16T19:58:37.974Z,16.50
2023-03-16T20:01:06.818Z,16.49
2023-03-16T20:03:35.582Z,16.48
2023-03-16T20:06:04.807Z,16.46
2023-03-16T20:08:34.069Z,16.45
2023-03-16T20:11:03.339Z,16.44
2023-03-16T20:13:32.134Z,16.43
2023-03-16T20:16:01.573Z,16.41
2023-03-16T20:18:30.930Z,16.41
2023-03-16T20:20:59.893Z,16.41
2023-03-16T20:23:28.318Z,16.40
2023-03-16T20:25:57.023Z,16.38
2023-03-16T20:28:26.186Z,16.39
2023-03-16T20:30:55.526Z,16.37
2023-03-16T20:33:24.923Z,16.36
2023-03-16T20:35:54.265Z,16.35
2023-03-16T20:38:23.034Z,16.35
2023-03-16T20:40:52.242Z,16.34
2023-03-16T20:43:21.474Z,16.33
2023-03-16T20:45:50.767Z,16.34
2023-03-16T20:48:20.180Z,16.33
2023-03-16T20:50:49.602Z,16.32
2023-03-16T20:53:18.852Z,16.32
2023-03-16T20:55:48.213Z,16.30
2023-03-16T20:58:17.060Z,16.29
2023-03-16T21:00:47.317Z,16.28
2023-03-16T21:03:17.524Z,16.29
2023-03-16T21:05:45.707Z,16.27
2023-03-16T21:08:15.032Z,16.26
2023-03-16T21:10:44.362Z,16.26
2023-03-16T21:13:13.592Z,16.23
2023-03-16T21:15:42.980Z,16.24
2023-03-16T21:18:11.974Z,16.23
2023-03-16T21:20:40.547Z,16.20
2023-03-16T21:23:09.185Z,16.21
2023-03-16T21:25:38.450Z,16.20
2023-03-16T21:28:07.783Z,16.19
2023-03-16T21:30:37.232Z,16.20
2023-03-16T21:33:07.680Z,16.18
2023-03-16T21:35:38.078Z,16.18
2023-03-16T21:38:06.884Z,16.18
2023-03-16T21:40:35.684Z,16.17
2023-03-16T21:43:04.533Z,16.16
2023-03-16T21:45:34.860Z,16.17
2023-03-16T21:48:03.792Z,16.17
2023-03-16T21:50:32.417Z,16.16
2023-03-16T21:53:01.132Z,16.15
2023-03-16T21:55:30.539Z,16.15
2023-03-16T21:57:59.671Z,16.13
2023-03-16T22:00:28.950Z,16.14
2023-03-16T22:02:58.098Z,16.13
2023-03-16T22:05:26.445Z,16.13
2023-03-16T22:07:55.807Z,16.13
2023-03-16T22:10:25.130Z,16.11
2023-03-16T22:12:54.344Z,16.10
2023-03-16T22:15:23.574Z,16.09
2023-03-16T22:17:52.781Z,16.10
2023-03-16T22:20:22.028Z,16.10
2023-03-16T22:22:51.256Z,16.08
2023-03-16T22:25:20.562Z,16.08
2023-03-16T22:27:49.805Z,16.07
2023-03-16T22:30:18.583Z,16.07
2023-03-16T22:32:47.873Z,16.05
2023-03-16T22:35:16.673Z,16.04
2023-03-16T22:37:45.901Z,16.03
2023-03-16T22:40:15.179Z,16.03
2023-03-16T22:42:44.385Z,16.02
2023-03-16T22:45:14.489Z,16.02
2023-03-16T22:47:44.719Z,16.02
2023-03-16T22:50:14.002Z,16.00
2023-03-16T22:52:42.973Z,15.99
2023-03-16T22:55:12.227Z,15.99
2023-03-16T22:57:41.323Z,15.98
2023-03-16T23:00:09.413Z,15.98
2023-03-16T23:02:38.149Z,15.97
2023-03-16T23:05:07.325Z,15.96
2023-03-16T23:07:36.692Z,15.95
2023-03-16T23:10:05.708Z,15.96
2023-03-16T23:12:34.459Z,15.96
2023-03-16T23:15:03.266Z,15.95
2023-03-16T23:17:32.571Z,15.95
2023-03-16T23:20:01.871Z,15.95
2023-03-16T23:22:30.628Z,15.94
2023-03-16T23:24:59.885Z,15.93
2023-03-16T23:27:28.222Z,15.92
2023-03-16T23:29:57.416Z,15.92
2023-03-16T23:32:26.824Z,15.93
2023-03-16T23:34:56.003Z,15.91
2023-03-16T23:37:25.412Z,15.91
2023-03-16T23:39:54.783Z,15.91
2023-03-16T23:42:24.216Z,15.91
2023-03-16T23:44:53.014Z,15.89
2023-03-16T23:47:22.243Z,15.90
2023-03-16T23:49:51.085Z,15.90
2023-03-16T23:52:20.327Z,15.90
2023-03-16T23:54:49.132Z,15.88
2023-03-16T23:57:18.406Z,15.88
2023-03-16T23:59:48.624Z,15.87
